Domov               UVHVVR             MKGP            O straneh              
ZDRAVSTVENO VARSTVO RASTLIN
  MREŽA AGROMET. POSTAJ
 ► PROGNOSTIČNA OBVESTILA
AGROMETEOROLOŠKI PODATKI -
ARSO
OBVLADOVANJE TVEGANJ ZARADI
NEUGODNIH VREMENSKIH RAZMER
  ► NARAVNE NESREČE
  ► SUŠA/MOČA
  ► NAMAKANJE
  ► ŽLED (gozdarstvo)
KARTOGRAFSKI PRIKAZI
SPLETNE POVEZAVE
PROJEKTI IN PUBLIKACIJE

AGROMETEOROLOŠKA MREŽA: VREMENSKE POSTAJE IN FENOLOŠKA OPAZOVANJA

Pregled podatkov za lokacijo Maribor - BTŠ, meteorološka postaja 35810

Pregled senzorjev na lokaciji

ID Ime Zadnja
vrednost
Datum in čas
zadnje
spremembe
(Lokalni čas)
Tip
senzorja
4297 Omočenost lista (U) 0 U 26.8.2019 09:30 A730WET
1723 Padavine (mm) 0 mm 26.8.2019 09:30 Generic 0.2 mm
1722 Relativna vlaga 2 m (% RH) 82.34 % RH 26.8.2019 09:30 Generic 0 - 100 %
1721 Temperatura 2 m (°C) 21.81 °C 26.8.2019 09:30 Generic -40 - +60 °C
4296 Smer vetra (°) 261.1 ° 26.8.2019 09:30 Generic 0 - 360
4295 Hitrost vetra (km/h) 1.81 km/h 26.8.2019 09:30 Generic 100 km/h

Pregled podatkov zadnjih 24 ur

Zap.
št.
Datum in čas
(Centralno
evropski čas)
Maribor - BTŠ
Omočenost
lista
Padavine Relativna
vlaga
2
m
Temperatura
2
m
Smer
vetra
Hitrost
vetra
1 26.8.2019 10:00
2 26.8.2019 09:30
3 26.8.2019 09:00
4 26.8.2019 08:30 0 0 82.3 21.8 261.1 1.8
5 26.8.2019 08:00 0 0 84 21.2 257.3 2.1
6 26.8.2019 07:30 0 0 87 20.4 299.7 2.3
7 26.8.2019 07:00 10 0 90 19.7 287.5 1.9
8 26.8.2019 06:30 10 0 92.1 19 268.2 1.5
9 26.8.2019 06:00 10 0 92 18.9 285.7 2.2
10 26.8.2019 05:30 10 0 94 18.6 324.9 1.7
11 26.8.2019 05:00 10 0 95.6 17.7 259.9 0.7
12 26.8.2019 04:30 10 0 94.7 18.2 338.7 0.6
13 26.8.2019 04:00 10 0 93.5 18.6 64.5 0.5
14 26.8.2019 03:30 10 0 92.5 18.7 260.6 0.9
15 26.8.2019 03:00 10 0 91.7 18.9 253 1.9
16 26.8.2019 02:30 9 0 90.6 19.1 300.7 1.9
17 26.8.2019 02:00 4 0 91 19.1 318.6 1.2
18 26.8.2019 01:30 1 0 89.3 19.7 275.5 2.2
19 26.8.2019 01:00 3 0 91.4 19.4 341.3 0.8
20 26.8.2019 00:30 1 0 88.9 19.9 285.3 2.3
21 26.8.2019 00:00 0 0 87.7 20.2 283 2.5
22 25.8.2019 23:30 0 0 86.8 20.5 287 2.3
23 25.8.2019 23:00 0 0 88.3 20.3 290.2 2.1
24 25.8.2019 22:30 1 0 88.3 20.4 274.7 2.5
25 25.8.2019 22:00 1 0 89.3 20.2 277.8 2.3
26 25.8.2019 21:30 1 0 87.9 20.7 284.8 2.3
27 25.8.2019 21:00 1 0 87.9 20.9 292.7 1.7
28 25.8.2019 20:30 2 0 88.8 20.9 289.5 1.6
29 25.8.2019 20:00 4 0 90.9 20.7 270.2 0.9
30 25.8.2019 19:30 2 0 89 21.1 239.6 0.9
31 25.8.2019 19:00 3 0 87.4 21.5 288.9 1.2
32 25.8.2019 18:30 0 0 82.7 22.9 327.8 0.2
33 25.8.2019 18:00 0 0 76.1 24.2 5 0.5
34 25.8.2019 17:30 0 0 69.8 25.1 118.2 1
35 25.8.2019 17:00 0 0 67.2 25.6 114.5 1.7
36 25.8.2019 16:30 0 0 65.8 25.7 112.7 1.8
37 25.8.2019 16:00 0 0 62.5 26.9 155.8 1.7
38 25.8.2019 15:30 0 0 63.3 26.5 88 1.8
39 25.8.2019 15:00 0 0 64.3 26.2 86.4 2.3
40 25.8.2019 14:30 0 0 61.2 27.1 155.1 1.9
41 25.8.2019 14:00 0 0 63.4 26.3 207.3 2.4
42 25.8.2019 13:30 0 0 64.9 25.6 232.9 2.8
43 25.8.2019 13:00 0 0 64.9 25.4 253.5 2.4
44 25.8.2019 12:30 0 0 68.1 24.8 300.3 2.2
45 25.8.2019 12:00 0 0 69 24.5 302.7 2.2
46 25.8.2019 11:30 0 0 69.3 24.2 249.9 2.8
47 25.8.2019 11:00 0 0 72.4 23.6 274.5 2.7
48 25.8.2019 10:30 0 0 73.8 22.8 270.3 2.1
© 2011 Ministrstvo za kmetijstvo, gozdarstvo in prehrano. Vse pravice pridržane.